sensor_id;sensor_type;location;lat;lon;timestamp;P1;durP1;ratioP1;P2;durP2;ratioP2
22382;SDS011;11359;45.802;13.530;2023-04-05T00:01:20;1.08;;;0.80;;
22382;SDS011;11359;45.802;13.530;2023-04-05T00:03:49;0.85;;;0.70;;
22382;SDS011;11359;45.802;13.530;2023-04-05T00:06:16;0.88;;;0.70;;
22382;SDS011;11359;45.802;13.530;2023-04-05T00:08:43;1.20;;;0.85;;
22382;SDS011;11359;45.802;13.530;2023-04-05T00:11:13;0.73;;;0.63;;
22382;SDS011;11359;45.802;13.530;2023-04-05T00:13:42;1.27;;;0.77;;
22382;SDS011;11359;45.802;13.530;2023-04-05T00:16:08;1.00;;;0.77;;
22382;SDS011;11359;45.802;13.530;2023-04-05T00:18:34;0.70;;;0.63;;
22382;SDS011;11359;45.802;13.530;2023-04-05T00:21:02;1.00;;;0.80;;
22382;SDS011;11359;45.802;13.530;2023-04-05T00:23:28;1.17;;;0.80;;
22382;SDS011;11359;45.802;13.530;2023-04-05T00:26:01;1.27;;;0.90;;
22382;SDS011;11359;45.802;13.530;2023-04-05T00:28:27;0.73;;;0.70;;
22382;SDS011;11359;45.802;13.530;2023-04-05T00:30:52;1.00;;;0.75;;
22382;SDS011;11359;45.802;13.530;2023-04-05T00:33:18;0.80;;;0.60;;
22382;SDS011;11359;45.802;13.530;2023-04-05T00:35:43;0.95;;;0.80;;
22382;SDS011;11359;45.802;13.530;2023-04-05T00:38:09;0.63;;;0.63;;
22382;SDS011;11359;45.802;13.530;2023-04-05T00:40:35;0.80;;;0.70;;
22382;SDS011;11359;45.802;13.530;2023-04-05T00:43:01;0.60;;;0.50;;
22382;SDS011;11359;45.802;13.530;2023-04-05T00:45:26;0.88;;;0.70;;
22382;SDS011;11359;45.802;13.530;2023-04-05T00:47:52;0.82;;;0.70;;
22382;SDS011;11359;45.802;13.530;2023-04-05T00:50:18;0.73;;;0.70;;
22382;SDS011;11359;45.802;13.530;2023-04-05T00:52:45;1.10;;;0.90;;
22382;SDS011;11359;45.802;13.530;2023-04-05T00:55:11;1.00;;;0.60;;
22382;SDS011;11359;45.802;13.530;2023-04-05T00:57:38;0.93;;;0.70;;
22382;SDS011;11359;45.802;13.530;2023-04-05T01:00:04;0.68;;;0.68;;
22382;SDS011;11359;45.802;13.530;2023-04-05T01:02:39;0.93;;;0.82;;
22382;SDS011;11359;45.802;13.530;2023-04-05T01:08:11;0.80;;;0.70;;
22382;SDS011;11359;45.802;13.530;2023-04-05T01:10:47;0.88;;;0.68;;
22382;SDS011;11359;45.802;13.530;2023-04-05T01:13:19;1.10;;;0.80;;
22382;SDS011;11359;45.802;13.530;2023-04-05T01:15:45;1.08;;;0.80;;
22382;SDS011;11359;45.802;13.530;2023-04-05T01:18:11;0.80;;;0.70;;
22382;SDS011;11359;45.802;13.530;2023-04-05T01:20:39;1.25;;;0.90;;
22382;SDS011;11359;45.802;13.530;2023-04-05T01:34:25;1.13;;;0.70;;
22382;SDS011;11359;45.802;13.530;2023-04-05T01:37:07;0.73;;;0.68;;
22382;SDS011;11359;45.802;13.530;2023-04-05T01:39:37;1.05;;;0.80;;
22382;SDS011;11359;45.802;13.530;2023-04-05T01:42:03;0.82;;;0.65;;
22382;SDS011;11359;45.802;13.530;2023-04-05T01:44:30;0.93;;;0.60;;
22382;SDS011;11359;45.802;13.530;2023-04-05T01:46:56;0.68;;;0.68;;
22382;SDS011;11359;45.802;13.530;2023-04-05T01:49:22;1.33;;;0.80;;
22382;SDS011;11359;45.802;13.530;2023-04-05T01:51:51;0.70;;;0.60;;
22382;SDS011;11359;45.802;13.530;2023-04-05T01:54:19;0.75;;;0.60;;
22382;SDS011;11359;45.802;13.530;2023-04-05T01:56:45;0.80;;;0.63;;
22382;SDS011;11359;45.802;13.530;2023-04-05T01:59:10;0.73;;;0.70;;
22382;SDS011;11359;45.802;13.530;2023-04-05T02:01:36;0.85;;;0.70;;
22382;SDS011;11359;45.802;13.530;2023-04-05T02:04:02;0.95;;;0.70;;
22382;SDS011;11359;45.802;13.530;2023-04-05T02:06:27;0.77;;;0.77;;
22382;SDS011;11359;45.802;13.530;2023-04-05T02:08:55;0.95;;;0.80;;
22382;SDS011;11359;45.802;13.530;2023-04-05T02:11:20;1.25;;;0.80;;
22382;SDS011;11359;45.802;13.530;2023-04-05T02:13:46;0.93;;;0.73;;
22382;SDS011;11359;45.802;13.530;2023-04-05T02:16:12;0.70;;;0.70;;
22382;SDS011;11359;45.802;13.530;2023-04-05T02:18:37;1.15;;;0.85;;
22382;SDS011;11359;45.802;13.530;2023-04-05T02:21:04;0.93;;;0.73;;
22382;SDS011;11359;45.802;13.530;2023-04-05T02:23:32;0.80;;;0.70;;
22382;SDS011;11359;45.802;13.530;2023-04-05T02:25:58;1.23;;;1.00;;
22382;SDS011;11359;45.802;13.530;2023-04-05T02:28:24;0.93;;;0.80;;
22382;SDS011;11359;45.802;13.530;2023-04-05T02:30:50;1.15;;;0.90;;
22382;SDS011;11359;45.802;13.530;2023-04-05T02:33:16;1.08;;;0.80;;
22382;SDS011;11359;45.802;13.530;2023-04-05T02:35:42;0.80;;;0.80;;
22382;SDS011;11359;45.802;13.530;2023-04-05T02:38:08;1.38;;;0.93;;
22382;SDS011;11359;45.802;13.530;2023-04-05T02:40:33;1.30;;;0.90;;
22382;SDS011;11359;45.802;13.530;2023-04-05T02:42:59;0.80;;;0.70;;
22382;SDS011;11359;45.802;13.530;2023-04-05T02:45:25;1.48;;;0.93;;
22382;SDS011;11359;45.802;13.530;2023-04-05T02:47:55;1.48;;;0.95;;
22382;SDS011;11359;45.802;13.530;2023-04-05T02:50:20;0.98;;;0.80;;
22382;SDS011;11359;45.802;13.530;2023-04-05T02:52:50;1.00;;;0.88;;
22382;SDS011;11359;45.802;13.530;2023-04-05T02:55:15;1.08;;;0.80;;
22382;SDS011;11359;45.802;13.530;2023-04-05T02:57:42;1.15;;;0.73;;
22382;SDS011;11359;45.802;13.530;2023-04-05T03:00:08;0.68;;;0.65;;
22382;SDS011;11359;45.802;13.530;2023-04-05T03:02:36;0.70;;;0.60;;
22382;SDS011;11359;45.802;13.530;2023-04-05T03:05:03;0.90;;;0.75;;
22382;SDS011;11359;45.802;13.530;2023-04-05T03:07:30;1.00;;;0.80;;
22382;SDS011;11359;45.802;13.530;2023-04-05T03:09:57;1.60;;;0.77;;
22382;SDS011;11359;45.802;13.530;2023-04-05T03:12:23;1.58;;;0.95;;
22382;SDS011;11359;45.802;13.530;2023-04-05T03:14:49;1.20;;;0.90;;
22382;SDS011;11359;45.802;13.530;2023-04-05T03:17:15;0.90;;;0.70;;
22382;SDS011;11359;45.802;13.530;2023-04-05T03:19:41;1.23;;;0.93;;
22382;SDS011;11359;45.802;13.530;2023-04-05T03:22:09;1.30;;;0.90;;
22382;SDS011;11359;45.802;13.530;2023-04-05T03:24:35;1.05;;;0.90;;
22382;SDS011;11359;45.802;13.530;2023-04-05T03:27:00;0.80;;;0.60;;
22382;SDS011;11359;45.802;13.530;2023-04-05T03:29:28;1.35;;;0.75;;
22382;SDS011;11359;45.802;13.530;2023-04-05T03:31:54;0.95;;;0.80;;
22382;SDS011;11359;45.802;13.530;2023-04-05T03:34:22;1.30;;;1.00;;
22382;SDS011;11359;45.802;13.530;2023-04-05T03:36:53;1.23;;;0.95;;
22382;SDS011;11359;45.802;13.530;2023-04-05T03:39:19;0.90;;;0.80;;
22382;SDS011;11359;45.802;13.530;2023-04-05T03:41:45;1.10;;;0.90;;
22382;SDS011;11359;45.802;13.530;2023-04-05T03:44:11;1.00;;;0.80;;
22382;SDS011;11359;45.802;13.530;2023-04-05T03:46:37;1.00;;;0.85;;
22382;SDS011;11359;45.802;13.530;2023-04-05T03:49:03;1.23;;;1.00;;
22382;SDS011;11359;45.802;13.530;2023-04-05T03:51:28;1.25;;;1.00;;
22382;SDS011;11359;45.802;13.530;2023-04-05T03:53:54;1.33;;;0.95;;
22382;SDS011;11359;45.802;13.530;2023-04-05T03:56:20;1.50;;;0.90;;
22382;SDS011;11359;45.802;13.530;2023-04-05T03:58:46;1.15;;;0.75;;
22382;SDS011;11359;45.802;13.530;2023-04-05T04:01:12;1.30;;;1.10;;
22382;SDS011;11359;45.802;13.530;2023-04-05T04:03:39;1.90;;;0.80;;
22382;SDS011;11359;45.802;13.530;2023-04-05T04:06:05;1.02;;;0.82;;
22382;SDS011;11359;45.802;13.530;2023-04-05T04:08:32;1.85;;;1.13;;
22382;SDS011;11359;45.802;13.530;2023-04-05T04:10:58;1.95;;;0.90;;
22382;SDS011;11359;45.802;13.530;2023-04-05T04:13:24;1.40;;;0.90;;
22382;SDS011;11359;45.802;13.530;2023-04-05T04:15:50;1.27;;;0.90;;
22382;SDS011;11359;45.802;13.530;2023-04-05T04:18:16;1.27;;;0.90;;
22382;SDS011;11359;45.802;13.530;2023-04-05T04:20:42;2.17;;;1.30;;
22382;SDS011;11359;45.802;13.530;2023-04-05T04:23:08;1.67;;;1.10;;
22382;SDS011;11359;45.802;13.530;2023-04-05T04:25:38;1.73;;;1.23;;
22382;SDS011;11359;45.802;13.530;2023-04-05T04:28:05;1.58;;;1.20;;
22382;SDS011;11359;45.802;13.530;2023-04-05T04:30:31;1.70;;;1.20;;
22382;SDS011;11359;45.802;13.530;2023-04-05T04:32:59;1.52;;;1.17;;
22382;SDS011;11359;45.802;13.530;2023-04-05T04:35:29;1.40;;;1.20;;
22382;SDS011;11359;45.802;13.530;2023-04-05T04:40:32;1.77;;;1.15;;
22382;SDS011;11359;45.802;13.530;2023-04-05T04:43:06;1.55;;;1.10;;
22382;SDS011;11359;45.802;13.530;2023-04-05T04:45:41;1.38;;;1.20;;
22382;SDS011;11359;45.802;13.530;2023-04-05T04:48:07;1.88;;;1.20;;
22382;SDS011;11359;45.802;13.530;2023-04-05T04:50:34;1.40;;;1.25;;
22382;SDS011;11359;45.802;13.530;2023-04-05T04:53:00;1.67;;;1.20;;
22382;SDS011;11359;45.802;13.530;2023-04-05T04:55:26;1.40;;;1.15;;
22382;SDS011;11359;45.802;13.530;2023-04-05T04:57:53;1.70;;;1.00;;
22382;SDS011;11359;45.802;13.530;2023-04-05T05:00:20;2.83;;;1.25;;
22382;SDS011;11359;45.802;13.530;2023-04-05T05:02:48;1.88;;;1.05;;
22382;SDS011;11359;45.802;13.530;2023-04-05T05:05:16;1.20;;;1.00;;
22382;SDS011;11359;45.802;13.530;2023-04-05T05:07:45;1.40;;;0.93;;
22382;SDS011;11359;45.802;13.530;2023-04-05T05:10:11;1.38;;;1.20;;
22382;SDS011;11359;45.802;13.530;2023-04-05T05:12:40;2.13;;;1.65;;
22382;SDS011;11359;45.802;13.530;2023-04-05T05:15:06;1.40;;;1.30;;
22382;SDS011;11359;45.802;13.530;2023-04-05T05:17:32;1.88;;;1.38;;
22382;SDS011;11359;45.802;13.530;2023-04-05T05:19:59;2.13;;;1.33;;
22382;SDS011;11359;45.802;13.530;2023-04-05T05:22:26;1.60;;;1.23;;
22382;SDS011;11359;45.802;13.530;2023-04-05T05:24:52;2.00;;;1.40;;
22382;SDS011;11359;45.802;13.530;2023-04-05T05:27:18;2.05;;;1.50;;
22382;SDS011;11359;45.802;13.530;2023-04-05T05:29:45;1.60;;;1.20;;
22382;SDS011;11359;45.802;13.530;2023-04-05T05:32:11;1.90;;;1.20;;
22382;SDS011;11359;45.802;13.530;2023-04-05T05:34:40;1.80;;;1.20;;
22382;SDS011;11359;45.802;13.530;2023-04-05T05:37:09;1.55;;;1.23;;
22382;SDS011;11359;45.802;13.530;2023-04-05T05:39:36;1.88;;;1.15;;
22382;SDS011;11359;45.802;13.530;2023-04-05T05:42:02;1.73;;;1.40;;
22382;SDS011;11359;45.802;13.530;2023-04-05T05:44:29;3.17;;;1.80;;
22382;SDS011;11359;45.802;13.530;2023-04-05T05:46:55;2.95;;;2.03;;
22382;SDS011;11359;45.802;13.530;2023-04-05T05:49:21;3.05;;;1.80;;
22382;SDS011;11359;45.802;13.530;2023-04-05T05:51:48;2.42;;;1.70;;
22382;SDS011;11359;45.802;13.530;2023-04-05T05:54:15;3.28;;;2.03;;
22382;SDS011;11359;45.802;13.530;2023-04-05T05:56:41;2.15;;;1.55;;
22382;SDS011;11359;45.802;13.530;2023-04-05T05:59:06;2.40;;;1.60;;
22382;SDS011;11359;45.802;13.530;2023-04-05T06:01:32;3.05;;;1.50;;
22382;SDS011;11359;45.802;13.530;2023-04-05T06:04:02;1.98;;;1.55;;
22382;SDS011;11359;45.802;13.530;2023-04-05T06:06:29;2.03;;;1.70;;
22382;SDS011;11359;45.802;13.530;2023-04-05T06:08:55;2.17;;;1.33;;
22382;SDS011;11359;45.802;13.530;2023-04-05T06:11:23;2.25;;;1.70;;
22382;SDS011;11359;45.802;13.530;2023-04-05T06:13:49;2.70;;;1.85;;
22382;SDS011;11359;45.802;13.530;2023-04-05T06:16:21;2.35;;;1.70;;
22382;SDS011;11359;45.802;13.530;2023-04-05T06:18:47;1.67;;;1.40;;
22382;SDS011;11359;45.802;13.530;2023-04-05T06:21:13;2.60;;;1.80;;
22382;SDS011;11359;45.802;13.530;2023-04-05T06:23:40;3.97;;;1.90;;
22382;SDS011;11359;45.802;13.530;2023-04-05T06:26:14;3.38;;;2.25;;
22382;SDS011;11359;45.802;13.530;2023-04-05T06:28:45;2.25;;;1.67;;
22382;SDS011;11359;45.802;13.530;2023-04-05T06:31:12;3.13;;;1.60;;
22382;SDS011;11359;45.802;13.530;2023-04-05T06:33:42;2.38;;;1.70;;
22382;SDS011;11359;45.802;13.530;2023-04-05T06:36:09;2.20;;;1.60;;
22382;SDS011;11359;45.802;13.530;2023-04-05T06:38:35;2.25;;;1.40;;
22382;SDS011;11359;45.802;13.530;2023-04-05T06:41:01;2.00;;;1.20;;
22382;SDS011;11359;45.802;13.530;2023-04-05T06:43:27;2.05;;;1.35;;
22382;SDS011;11359;45.802;13.530;2023-04-05T06:45:56;2.38;;;1.60;;
22382;SDS011;11359;45.802;13.530;2023-04-05T06:48:22;2.33;;;1.38;;
22382;SDS011;11359;45.802;13.530;2023-04-05T06:50:58;1.80;;;1.23;;
22382;SDS011;11359;45.802;13.530;2023-04-05T06:53:27;1.50;;;1.35;;
22382;SDS011;11359;45.802;13.530;2023-04-05T06:55:57;1.67;;;1.23;;
22382;SDS011;11359;45.802;13.530;2023-04-05T06:58:24;1.70;;;1.00;;
22382;SDS011;11359;45.802;13.530;2023-04-05T07:00:51;1.40;;;1.10;;
22382;SDS011;11359;45.802;13.530;2023-04-05T07:03:17;1.70;;;1.10;;
22382;SDS011;11359;45.802;13.530;2023-04-05T07:05:50;1.83;;;1.20;;
22382;SDS011;11359;45.802;13.530;2023-04-05T07:08:23;1.65;;;1.20;;
22382;SDS011;11359;45.802;13.530;2023-04-05T07:10:51;1.77;;;1.27;;
22382;SDS011;11359;45.802;13.530;2023-04-05T07:13:17;2.28;;;1.55;;
22382;SDS011;11359;45.802;13.530;2023-04-05T07:15:45;1.23;;;1.02;;
22382;SDS011;11359;45.802;13.530;2023-04-05T07:18:11;2.35;;;1.60;;
22382;SDS011;11359;45.802;13.530;2023-04-05T07:20:39;1.98;;;1.25;;
22382;SDS011;11359;45.802;13.530;2023-04-05T07:23:05;1.48;;;1.13;;
22382;SDS011;11359;45.802;13.530;2023-04-05T07:25:31;1.80;;;1.30;;
22382;SDS011;11359;45.802;13.530;2023-04-05T07:27:57;1.95;;;1.30;;
22382;SDS011;11359;45.802;13.530;2023-04-05T07:30:24;1.60;;;1.20;;
22382;SDS011;11359;45.802;13.530;2023-04-05T07:32:51;2.08;;;1.30;;
22382;SDS011;11359;45.802;13.530;2023-04-05T07:35:17;1.92;;;1.30;;
22382;SDS011;11359;45.802;13.530;2023-04-05T07:37:43;1.60;;;1.10;;
22382;SDS011;11359;45.802;13.530;2023-04-05T07:40:08;1.95;;;1.20;;
22382;SDS011;11359;45.802;13.530;2023-04-05T07:42:36;2.38;;;1.63;;
22382;SDS011;11359;45.802;13.530;2023-04-05T07:45:02;3.05;;;1.60;;
22382;SDS011;11359;45.802;13.530;2023-04-05T07:47:28;2.28;;;1.50;;
22382;SDS011;11359;45.802;13.530;2023-04-05T07:49:54;2.17;;;1.50;;
22382;SDS011;11359;45.802;13.530;2023-04-05T07:52:19;1.90;;;1.50;;
22382;SDS011;11359;45.802;13.530;2023-04-05T07:54:45;2.38;;;1.40;;
22382;SDS011;11359;45.802;13.530;2023-04-05T07:57:18;1.92;;;1.50;;
22382;SDS011;11359;45.802;13.530;2023-04-05T07:59:44;1.63;;;1.30;;
22382;SDS011;11359;45.802;13.530;2023-04-05T08:02:10;1.20;;;0.90;;
22382;SDS011;11359;45.802;13.530;2023-04-05T08:04:36;2.08;;;1.25;;
22382;SDS011;11359;45.802;13.530;2023-04-05T08:07:01;1.55;;;1.20;;
22382;SDS011;11359;45.802;13.530;2023-04-05T08:09:27;1.58;;;1.10;;
22382;SDS011;11359;45.802;13.530;2023-04-05T08:11:53;1.80;;;1.40;;
22382;SDS011;11359;45.802;13.530;2023-04-05T08:14:18;2.00;;;1.40;;
22382;SDS011;11359;45.802;13.530;2023-04-05T08:16:44;1.75;;;1.30;;
22382;SDS011;11359;45.802;13.530;2023-04-05T08:19:11;1.77;;;1.33;;
22382;SDS011;11359;45.802;13.530;2023-04-05T08:21:37;1.75;;;1.30;;
22382;SDS011;11359;45.802;13.530;2023-04-05T08:24:03;1.75;;;1.20;;
22382;SDS011;11359;45.802;13.530;2023-04-05T08:26:29;2.00;;;1.20;;
22382;SDS011;11359;45.802;13.530;2023-04-05T08:28:55;1.58;;;1.17;;
22382;SDS011;11359;45.802;13.530;2023-04-05T08:31:22;1.00;;;0.90;;
22382;SDS011;11359;45.802;13.530;2023-04-05T08:33:48;1.63;;;1.30;;
22382;SDS011;11359;45.802;13.530;2023-04-05T08:36:13;1.30;;;1.10;;
22382;SDS011;11359;45.802;13.530;2023-04-05T08:38:39;1.17;;;0.98;;
22382;SDS011;11359;45.802;13.530;2023-04-05T08:41:18;1.98;;;0.90;;
22382;SDS011;11359;45.802;13.530;2023-04-05T08:43:55;1.20;;;0.90;;
22382;SDS011;11359;45.802;13.530;2023-04-05T08:46:23;0.75;;;0.70;;
22382;SDS011;11359;45.802;13.530;2023-04-05T08:48:50;1.25;;;0.90;;
22382;SDS011;11359;45.802;13.530;2023-04-05T08:51:20;1.40;;;0.90;;
22382;SDS011;11359;45.802;13.530;2023-04-05T08:53:47;1.40;;;0.90;;
22382;SDS011;11359;45.802;13.530;2023-04-05T08:56:14;1.27;;;1.00;;
22382;SDS011;11359;45.802;13.530;2023-04-05T08:58:55;1.20;;;0.80;;
22382;SDS011;11359;45.802;13.530;2023-04-05T09:01:26;1.55;;;1.10;;
22382;SDS011;11359;45.802;13.530;2023-04-05T09:03:58;1.30;;;0.98;;
22382;SDS011;11359;45.802;13.530;2023-04-05T09:06:26;1.23;;;0.90;;
22382;SDS011;11359;45.802;13.530;2023-04-05T09:08:54;1.58;;;1.17;;
22382;SDS011;11359;45.802;13.530;2023-04-05T09:11:25;1.65;;;1.20;;
22382;SDS011;11359;45.802;13.530;2023-04-05T09:13:52;1.00;;;0.90;;
22382;SDS011;11359;45.802;13.530;2023-04-05T09:16:17;1.13;;;0.90;;
22382;SDS011;11359;45.802;13.530;2023-04-05T09:18:44;1.38;;;1.00;;
22382;SDS011;11359;45.802;13.530;2023-04-05T09:21:10;1.08;;;0.90;;
22382;SDS011;11359;45.802;13.530;2023-04-05T09:23:37;1.38;;;0.95;;
22382;SDS011;11359;45.802;13.530;2023-04-05T09:26:20;1.70;;;1.10;;
22382;SDS011;11359;45.802;13.530;2023-04-05T09:28:48;1.23;;;0.90;;
22382;SDS011;11359;45.802;13.530;2023-04-05T09:34:03;1.08;;;0.98;;
22382;SDS011;11359;45.802;13.530;2023-04-05T09:36:33;2.03;;;1.25;;
22382;SDS011;11359;45.802;13.530;2023-04-05T09:39:06;2.00;;;1.45;;
22382;SDS011;11359;45.802;13.530;2023-04-05T09:41:34;1.58;;;0.90;;
22382;SDS011;11359;45.802;13.530;2023-04-05T09:44:01;1.42;;;1.08;;
22382;SDS011;11359;45.802;13.530;2023-04-05T09:46:31;1.73;;;1.27;;
22382;SDS011;11359;45.802;13.530;2023-04-05T09:48:59;1.23;;;0.98;;
22382;SDS011;11359;45.802;13.530;2023-04-05T09:51:31;1.10;;;1.00;;
22382;SDS011;11359;45.802;13.530;2023-04-05T09:54:02;1.20;;;1.00;;
22382;SDS011;11359;45.802;13.530;2023-04-05T09:56:31;1.35;;;0.85;;
22382;SDS011;11359;45.802;13.530;2023-04-05T09:59:01;1.27;;;0.90;;
22382;SDS011;11359;45.802;13.530;2023-04-05T10:01:35;0.80;;;0.70;;
22382;SDS011;11359;45.802;13.530;2023-04-05T10:04:01;1.00;;;0.75;;
22382;SDS011;11359;45.802;13.530;2023-04-05T10:06:33;1.00;;;0.80;;
22382;SDS011;11359;45.802;13.530;2023-04-05T10:09:03;1.23;;;1.00;;
22382;SDS011;11359;45.802;13.530;2023-04-05T10:11:31;1.45;;;0.80;;
22382;SDS011;11359;45.802;13.530;2023-04-05T10:14:05;1.52;;;1.00;;
22382;SDS011;11359;45.802;13.530;2023-04-05T10:16:35;1.15;;;0.90;;
22382;SDS011;11359;45.802;13.530;2023-04-05T10:22:23;1.08;;;0.80;;
22382;SDS011;11359;45.802;13.530;2023-04-05T10:25:42;2.05;;;1.15;;
22382;SDS011;11359;45.802;13.530;2023-04-05T10:27:58;1.10;;;0.80;;
22382;SDS011;11359;45.802;13.530;2023-04-05T10:30:39;0.77;;;0.70;;
22382;SDS011;11359;45.802;13.530;2023-04-05T10:41:33;1.20;;;0.90;;
22382;SDS011;11359;45.802;13.530;2023-04-05T10:44:01;1.15;;;0.85;;
22382;SDS011;11359;45.802;13.530;2023-04-05T10:46:29;1.13;;;0.80;;
22382;SDS011;11359;45.802;13.530;2023-04-05T10:49:09;1.00;;;0.80;;
22382;SDS011;11359;45.802;13.530;2023-04-05T10:51:47;0.75;;;0.75;;
22382;SDS011;11359;45.802;13.530;2023-04-05T10:54:16;0.88;;;0.70;;
22382;SDS011;11359;45.802;13.530;2023-04-05T10:56:43;1.20;;;0.73;;
22382;SDS011;11359;45.802;13.530;2023-04-05T10:59:11;1.58;;;0.70;;
22382;SDS011;11359;45.802;13.530;2023-04-05T11:01:38;1.20;;;0.88;;
22382;SDS011;11359;45.802;13.530;2023-04-05T11:04:12;0.75;;;0.73;;
22382;SDS011;11359;45.802;13.530;2023-04-05T11:06:39;0.70;;;0.70;;
22382;SDS011;11359;45.802;13.530;2023-04-05T11:11:41;1.13;;;0.80;;
22382;SDS011;11359;45.802;13.530;2023-04-05T11:17:23;0.70;;;0.60;;
22382;SDS011;11359;45.802;13.530;2023-04-05T11:20:01;0.70;;;0.70;;
22382;SDS011;11359;45.802;13.530;2023-04-05T11:22:29;0.90;;;0.70;;
22382;SDS011;11359;45.802;13.530;2023-04-05T11:24:57;1.45;;;0.90;;
22382;SDS011;11359;45.802;13.530;2023-04-05T11:27:32;0.60;;;0.60;;
22382;SDS011;11359;45.802;13.530;2023-04-05T11:30:02;0.88;;;0.65;;
22382;SDS011;11359;45.802;13.530;2023-04-05T11:32:40;1.50;;;0.82;;
22382;SDS011;11359;45.802;13.530;2023-04-05T11:35:17;1.05;;;0.82;;
22382;SDS011;11359;45.802;13.530;2023-04-05T11:37:55;1.00;;;0.70;;
22382;SDS011;11359;45.802;13.530;2023-04-05T11:40:33;1.30;;;1.10;;
22382;SDS011;11359;45.802;13.530;2023-04-05T11:43:01;1.30;;;1.02;;
22382;SDS011;11359;45.802;13.530;2023-04-05T11:45:36;1.40;;;0.95;;
22382;SDS011;11359;45.802;13.530;2023-04-05T11:48:10;1.25;;;0.82;;
22382;SDS011;11359;45.802;13.530;2023-04-05T11:50:37;1.00;;;0.80;;
22382;SDS011;11359;45.802;13.530;2023-04-05T11:53:10;0.80;;;0.80;;
22382;SDS011;11359;45.802;13.530;2023-04-05T11:55:37;1.10;;;0.90;;
22382;SDS011;11359;45.802;13.530;2023-04-05T11:58:22;1.00;;;0.80;;
22382;SDS011;11359;45.802;13.530;2023-04-05T12:00:56;1.00;;;0.80;;
22382;SDS011;11359;45.802;13.530;2023-04-05T12:03:27;0.75;;;0.73;;
22382;SDS011;11359;45.802;13.530;2023-04-05T12:05:54;1.15;;;0.90;;
22382;SDS011;11359;45.802;13.530;2023-04-05T12:08:22;1.50;;;0.90;;
22382;SDS011;11359;45.802;13.530;2023-04-05T12:10:55;1.20;;;0.70;;
22382;SDS011;11359;45.802;13.530;2023-04-05T12:13:29;0.93;;;0.87;;
22382;SDS011;11359;45.802;13.530;2023-04-05T12:15:57;1.60;;;1.13;;
22382;SDS011;11359;45.802;13.530;2023-04-05T12:18:24;1.63;;;1.25;;
22382;SDS011;11359;45.802;13.530;2023-04-05T12:20:51;1.75;;;1.30;;
22382;SDS011;11359;45.802;13.530;2023-04-05T12:23:18;2.25;;;1.30;;
22382;SDS011;11359;45.802;13.530;2023-04-05T12:25:51;2.90;;;1.83;;
22382;SDS011;11359;45.802;13.530;2023-04-05T12:28:18;2.20;;;1.80;;
22382;SDS011;11359;45.802;13.530;2023-04-05T12:30:48;2.55;;;1.98;;
22382;SDS011;11359;45.802;13.530;2023-04-05T12:33:28;3.13;;;1.92;;
22382;SDS011;11359;45.802;13.530;2023-04-05T12:35:56;3.05;;;2.20;;
22382;SDS011;11359;45.802;13.530;2023-04-05T12:38:29;3.80;;;2.30;;
22382;SDS011;11359;45.802;13.530;2023-04-05T12:41:01;2.50;;;1.98;;
22382;SDS011;11359;45.802;13.530;2023-04-05T12:43:38;2.17;;;1.70;;
22382;SDS011;11359;45.802;13.530;2023-04-05T12:46:07;3.15;;;1.90;;
22382;SDS011;11359;45.802;13.530;2023-04-05T12:48:34;2.58;;;2.00;;
22382;SDS011;11359;45.802;13.530;2023-04-05T12:51:02;2.97;;;2.10;;
22382;SDS011;11359;45.802;13.530;2023-04-05T12:53:29;1.80;;;1.40;;
22382;SDS011;11359;45.802;13.530;2023-04-05T12:55:55;2.72;;;1.48;;
22382;SDS011;11359;45.802;13.530;2023-04-05T12:58:32;2.53;;;1.80;;
22382;SDS011;11359;45.802;13.530;2023-04-05T13:00:59;3.58;;;2.05;;
22382;SDS011;11359;45.802;13.530;2023-04-05T13:03:25;2.40;;;1.80;;
22382;SDS011;11359;45.802;13.530;2023-04-05T13:05:52;2.15;;;1.55;;
22382;SDS011;11359;45.802;13.530;2023-04-05T13:08:17;1.40;;;1.02;;
22382;SDS011;11359;45.802;13.530;2023-04-05T13:10:47;1.40;;;1.10;;
22382;SDS011;11359;45.802;13.530;2023-04-05T13:13:14;1.15;;;0.88;;
22382;SDS011;11359;45.802;13.530;2023-04-05T13:15:41;1.55;;;1.15;;
22382;SDS011;11359;45.802;13.530;2023-04-05T13:18:07;1.92;;;1.13;;
22382;SDS011;11359;45.802;13.530;2023-04-05T13:20:33;1.65;;;1.30;;
22382;SDS011;11359;45.802;13.530;2023-04-05T13:22:59;2.28;;;1.48;;
22382;SDS011;11359;45.802;13.530;2023-04-05T13:25:25;2.13;;;1.45;;
22382;SDS011;11359;45.802;13.530;2023-04-05T13:27:51;1.67;;;1.10;;
22382;SDS011;11359;45.802;13.530;2023-04-05T13:30:17;2.92;;;1.63;;
22382;SDS011;11359;45.802;13.530;2023-04-05T13:32:43;2.42;;;1.70;;
22382;SDS011;11359;45.802;13.530;2023-04-05T13:35:09;3.22;;;2.15;;
22382;SDS011;11359;45.802;13.530;2023-04-05T13:37:35;2.28;;;1.60;;
22382;SDS011;11359;45.802;13.530;2023-04-05T13:40:01;2.13;;;1.40;;
22382;SDS011;11359;45.802;13.530;2023-04-05T13:42:27;1.50;;;1.10;;
22382;SDS011;11359;45.802;13.530;2023-04-05T13:44:52;1.85;;;1.20;;
22382;SDS011;11359;45.802;13.530;2023-04-05T13:47:18;1.83;;;1.23;;
22382;SDS011;11359;45.802;13.530;2023-04-05T13:49:44;2.13;;;1.70;;
22382;SDS011;11359;45.802;13.530;2023-04-05T13:52:10;3.47;;;2.42;;
22382;SDS011;11359;45.802;13.530;2023-04-05T13:54:36;4.32;;;2.25;;
22382;SDS011;11359;45.802;13.530;2023-04-05T13:57:01;2.97;;;2.13;;
22382;SDS011;11359;45.802;13.530;2023-04-05T13:59:27;2.28;;;1.90;;
22382;SDS011;11359;45.802;13.530;2023-04-05T14:01:53;3.47;;;2.40;;
22382;SDS011;11359;45.802;13.530;2023-04-05T14:04:19;3.20;;;2.25;;
22382;SDS011;11359;45.802;13.530;2023-04-05T14:06:44;2.70;;;1.90;;
22382;SDS011;11359;45.802;13.530;2023-04-05T14:09:10;2.90;;;1.83;;
22382;SDS011;11359;45.802;13.530;2023-04-05T14:11:36;2.58;;;2.00;;
22382;SDS011;11359;45.802;13.530;2023-04-05T14:14:02;2.90;;;1.70;;
22382;SDS011;11359;45.802;13.530;2023-04-05T14:16:28;1.85;;;1.40;;
22382;SDS011;11359;45.802;13.530;2023-04-05T14:18:54;2.40;;;1.80;;
22382;SDS011;11359;45.802;13.530;2023-04-05T14:21:20;3.20;;;2.38;;
22382;SDS011;11359;45.802;13.530;2023-04-05T14:23:48;4.15;;;2.20;;
22382;SDS011;11359;45.802;13.530;2023-04-05T14:26:16;3.15;;;2.45;;
22382;SDS011;11359;45.802;13.530;2023-04-05T14:28:42;2.70;;;2.03;;
22382;SDS011;11359;45.802;13.530;2023-04-05T14:31:08;2.13;;;1.70;;
22382;SDS011;11359;45.802;13.530;2023-04-05T14:33:34;2.63;;;2.08;;
22382;SDS011;11359;45.802;13.530;2023-04-05T14:35:59;2.08;;;1.80;;
22382;SDS011;11359;45.802;13.530;2023-04-05T14:38:25;2.00;;;1.65;;
22382;SDS011;11359;45.802;13.530;2023-04-05T14:40:51;2.17;;;1.60;;
22382;SDS011;11359;45.802;13.530;2023-04-05T14:43:17;2.15;;;1.30;;
22382;SDS011;11359;45.802;13.530;2023-04-05T14:45:42;2.63;;;1.63;;
22382;SDS011;11359;45.802;13.530;2023-04-05T14:48:08;3.35;;;2.20;;
22382;SDS011;11359;45.802;13.530;2023-04-05T14:50:34;2.25;;;2.03;;
22382;SDS011;11359;45.802;13.530;2023-04-05T14:52:59;2.28;;;1.60;;
22382;SDS011;11359;45.802;13.530;2023-04-05T14:55:26;2.53;;;2.00;;
22382;SDS011;11359;45.802;13.530;2023-04-05T14:57:52;3.05;;;2.08;;
22382;SDS011;11359;45.802;13.530;2023-04-05T15:00:19;2.13;;;1.40;;
22382;SDS011;11359;45.802;13.530;2023-04-05T15:02:45;2.42;;;1.83;;
22382;SDS011;11359;45.802;13.530;2023-04-05T15:05:11;1.95;;;1.63;;
22382;SDS011;11359;45.802;13.530;2023-04-05T15:07:37;1.55;;;1.30;;
22382;SDS011;11359;45.802;13.530;2023-04-05T15:10:03;2.42;;;1.70;;
22382;SDS011;11359;45.802;13.530;2023-04-05T15:12:30;1.95;;;1.35;;
22382;SDS011;11359;45.802;13.530;2023-04-05T15:14:56;1.65;;;1.30;;